sensor_id;sensor_type;location;lat;lon;timestamp;P1;durP1;ratioP1;P2;durP2;ratioP2
74168;SDS011;62523;53.336;83.690;2023-07-20T00:03:35;17.61;;;7.00;;
74168;SDS011;62523;53.336;83.690;2023-07-20T00:08:37;27.50;;;8.47;;
74168;SDS011;62523;53.336;83.690;2023-07-20T00:13:39;23.00;;;8.23;;
74168;SDS011;62523;53.336;83.690;2023-07-20T00:18:40;18.50;;;8.53;;
74168;SDS011;62523;53.336;83.690;2023-07-20T00:23:42;9.82;;;6.55;;
74168;SDS011;62523;53.336;83.690;2023-07-20T00:28:44;12.05;;;7.43;;
74168;SDS011;62523;53.336;83.690;2023-07-20T00:33:45;27.00;;;7.15;;
74168;SDS011;62523;53.336;83.690;2023-07-20T00:38:48;21.83;;;8.93;;
74168;SDS011;62523;53.336;83.690;2023-07-20T00:43:51;15.27;;;6.97;;
74168;SDS011;62523;53.336;83.690;2023-07-20T00:48:53;24.03;;;8.13;;
74168;SDS011;62523;53.336;83.690;2023-07-20T00:53:55;16.63;;;6.93;;
74168;SDS011;62523;53.336;83.690;2023-07-20T00:58:56;16.20;;;8.25;;
74168;SDS011;62523;53.336;83.690;2023-07-20T01:03:58;16.88;;;6.20;;
74168;SDS011;62523;53.336;83.690;2023-07-20T01:14:28;20.73;;;8.30;;
74168;SDS011;62523;53.336;83.690;2023-07-20T01:19:31;13.18;;;7.68;;
74168;SDS011;62523;53.336;83.690;2023-07-20T01:24:45;23.40;;;9.52;;
74168;SDS011;62523;53.336;83.690;2023-07-20T01:35:17;15.77;;;8.77;;
74168;SDS011;62523;53.336;83.690;2023-07-20T01:40:22;13.25;;;8.00;;
74168;SDS011;62523;53.336;83.690;2023-07-20T01:45:27;21.60;;;9.13;;
74168;SDS011;62523;53.336;83.690;2023-07-20T01:50:29;41.85;;;8.90;;
74168;SDS011;62523;53.336;83.690;2023-07-20T01:55:30;23.30;;;9.13;;
74168;SDS011;62523;53.336;83.690;2023-07-20T02:00:32;51.42;;;9.43;;
74168;SDS011;62523;53.336;83.690;2023-07-20T02:05:33;14.07;;;8.93;;
74168;SDS011;62523;53.336;83.690;2023-07-20T02:10:35;24.88;;;8.75;;
74168;SDS011;62523;53.336;83.690;2023-07-20T02:15:37;30.17;;;10.02;;
74168;SDS011;62523;53.336;83.690;2023-07-20T02:20:40;25.70;;;9.38;;
74168;SDS011;62523;53.336;83.690;2023-07-20T02:25:42;32.90;;;18.27;;
74168;SDS011;62523;53.336;83.690;2023-07-20T02:30:45;12.98;;;8.00;;
74168;SDS011;62523;53.336;83.690;2023-07-20T02:35:47;24.85;;;8.18;;
74168;SDS011;62523;53.336;83.690;2023-07-20T02:40:48;22.80;;;9.77;;
74168;SDS011;62523;53.336;83.690;2023-07-20T02:45:50;30.67;;;10.18;;
74168;SDS011;62523;53.336;83.690;2023-07-20T02:50:52;21.17;;;9.77;;
74168;SDS011;62523;53.336;83.690;2023-07-20T02:55:54;34.50;;;9.73;;
74168;SDS011;62523;53.336;83.690;2023-07-20T03:00:55;26.77;;;11.00;;
74168;SDS011;62523;53.336;83.690;2023-07-20T03:05:57;51.75;;;14.65;;
74168;SDS011;62523;53.336;83.690;2023-07-20T03:11:00;37.03;;;11.50;;
74168;SDS011;62523;53.336;83.690;2023-07-20T03:16:04;21.33;;;9.73;;
74168;SDS011;62523;53.336;83.690;2023-07-20T03:21:06;29.00;;;11.10;;
74168;SDS011;62523;53.336;83.690;2023-07-20T03:26:12;18.52;;;14.40;;
74168;SDS011;62523;53.336;83.690;2023-07-20T03:31:13;41.83;;;15.50;;
74168;SDS011;62523;53.336;83.690;2023-07-20T03:36:16;39.97;;;14.80;;
74168;SDS011;62523;53.336;83.690;2023-07-20T03:41:17;47.30;;;15.45;;
74168;SDS011;62523;53.336;83.690;2023-07-20T03:46:20;47.88;;;17.00;;
74168;SDS011;62523;53.336;83.690;2023-07-20T03:51:22;42.50;;;14.07;;
74168;SDS011;62523;53.336;83.690;2023-07-20T03:56:23;31.27;;;14.68;;
74168;SDS011;62523;53.336;83.690;2023-07-20T04:01:25;47.03;;;13.67;;
74168;SDS011;62523;53.336;83.690;2023-07-20T04:06:26;57.75;;;15.90;;
74168;SDS011;62523;53.336;83.690;2023-07-20T04:11:28;40.97;;;13.60;;
74168;SDS011;62523;53.336;83.690;2023-07-20T04:16:29;45.60;;;15.63;;
74168;SDS011;62523;53.336;83.690;2023-07-20T04:21:31;37.97;;;16.20;;
74168;SDS011;62523;53.336;83.690;2023-07-20T04:26:33;38.57;;;15.43;;
74168;SDS011;62523;53.336;83.690;2023-07-20T04:31:35;57.42;;;16.95;;
74168;SDS011;62523;53.336;83.690;2023-07-20T04:36:38;41.55;;;16.75;;
74168;SDS011;62523;53.336;83.690;2023-07-20T04:41:40;65.85;;;19.77;;
74168;SDS011;62523;53.336;83.690;2023-07-20T04:46:41;32.03;;;14.10;;
74168;SDS011;62523;53.336;83.690;2023-07-20T04:51:43;28.30;;;13.57;;
74168;SDS011;62523;53.336;83.690;2023-07-20T04:56:45;25.38;;;12.13;;
74168;SDS011;62523;53.336;83.690;2023-07-20T05:01:48;25.60;;;13.18;;
74168;SDS011;62523;53.336;83.690;2023-07-20T05:06:50;43.67;;;14.30;;
74168;SDS011;62523;53.336;83.690;2023-07-20T05:11:52;41.58;;;16.15;;
74168;SDS011;62523;53.336;83.690;2023-07-20T05:16:54;37.25;;;13.82;;
74168;SDS011;62523;53.336;83.690;2023-07-20T05:21:55;40.78;;;12.98;;
74168;SDS011;62523;53.336;83.690;2023-07-20T05:26:58;20.73;;;10.90;;
74168;SDS011;62523;53.336;83.690;2023-07-20T05:31:59;18.52;;;10.93;;
74168;SDS011;62523;53.336;83.690;2023-07-20T05:37:01;40.63;;;12.37;;
74168;SDS011;62523;53.336;83.690;2023-07-20T05:42:03;30.40;;;11.85;;
74168;SDS011;62523;53.336;83.690;2023-07-20T05:47:04;35.58;;;11.55;;
74168;SDS011;62523;53.336;83.690;2023-07-20T05:52:06;28.45;;;11.35;;
74168;SDS011;62523;53.336;83.690;2023-07-20T05:57:08;35.15;;;12.10;;
74168;SDS011;62523;53.336;83.690;2023-07-20T06:02:10;20.52;;;10.05;;
74168;SDS011;62523;53.336;83.690;2023-07-20T06:07:12;21.17;;;10.45;;
74168;SDS011;62523;53.336;83.690;2023-07-20T06:12:14;21.77;;;15.05;;
74168;SDS011;62523;53.336;83.690;2023-07-20T06:17:16;18.85;;;10.90;;
74168;SDS011;62523;53.336;83.690;2023-07-20T06:22:17;24.05;;;7.85;;
74168;SDS011;62523;53.336;83.690;2023-07-20T06:27:19;21.43;;;8.43;;
74168;SDS011;62523;53.336;83.690;2023-07-20T06:32:20;23.25;;;9.32;;
74168;SDS011;62523;53.336;83.690;2023-07-20T06:37:22;12.40;;;9.00;;
74168;SDS011;62523;53.336;83.690;2023-07-20T06:42:23;24.02;;;8.82;;
74168;SDS011;62523;53.336;83.690;2023-07-20T06:47:25;18.30;;;8.57;;
74168;SDS011;62523;53.336;83.690;2023-07-20T06:52:26;12.77;;;7.57;;
74168;SDS011;62523;53.336;83.690;2023-07-20T06:57:28;16.98;;;8.30;;
74168;SDS011;62523;53.336;83.690;2023-07-20T07:02:29;8.57;;;7.32;;
74168;SDS011;62523;53.336;83.690;2023-07-20T07:07:31;9.97;;;7.53;;
74168;SDS011;62523;53.336;83.690;2023-07-20T07:12:33;19.35;;;7.78;;
74168;SDS011;62523;53.336;83.690;2023-07-20T07:17:35;19.67;;;8.07;;
74168;SDS011;62523;53.336;83.690;2023-07-20T07:22:36;21.00;;;8.88;;
74168;SDS011;62523;53.336;83.690;2023-07-20T07:27:38;16.65;;;8.88;;
74168;SDS011;62523;53.336;83.690;2023-07-20T07:32:39;12.55;;;7.50;;
74168;SDS011;62523;53.336;83.690;2023-07-20T07:37:41;37.72;;;7.68;;
74168;SDS011;62523;53.336;83.690;2023-07-20T07:42:43;18.60;;;6.63;;
74168;SDS011;62523;53.336;83.690;2023-07-20T07:47:45;13.55;;;5.18;;
74168;SDS011;62523;53.336;83.690;2023-07-20T07:52:46;10.40;;;6.50;;
74168;SDS011;62523;53.336;83.690;2023-07-20T07:57:48;8.02;;;5.15;;
74168;SDS011;62523;53.336;83.690;2023-07-20T08:02:50;15.80;;;7.25;;
74168;SDS011;62523;53.336;83.690;2023-07-20T08:07:51;11.10;;;5.25;;
74168;SDS011;62523;53.336;83.690;2023-07-20T08:12:53;7.43;;;3.55;;
74168;SDS011;62523;53.336;83.690;2023-07-20T08:17:55;10.10;;;5.25;;
74168;SDS011;62523;53.336;83.690;2023-07-20T08:22:57;8.80;;;5.82;;
74168;SDS011;62523;53.336;83.690;2023-07-20T08:28:00;13.88;;;5.68;;
74168;SDS011;62523;53.336;83.690;2023-07-20T08:33:03;8.97;;;5.60;;
74168;SDS011;62523;53.336;83.690;2023-07-20T08:38:04;7.80;;;5.45;;
74168;SDS011;62523;53.336;83.690;2023-07-20T08:43:06;11.35;;;6.10;;
74168;SDS011;62523;53.336;83.690;2023-07-20T08:48:08;8.95;;;5.35;;
74168;SDS011;62523;53.336;83.690;2023-07-20T08:53:10;11.98;;;6.35;;
74168;SDS011;62523;53.336;83.690;2023-07-20T08:58:14;5.47;;;3.30;;
74168;SDS011;62523;53.336;83.690;2023-07-20T09:03:16;10.23;;;2.80;;
74168;SDS011;62523;53.336;83.690;2023-07-20T09:08:19;9.77;;;3.57;;
74168;SDS011;62523;53.336;83.690;2023-07-20T09:13:20;7.75;;;3.70;;
74168;SDS011;62523;53.336;83.690;2023-07-20T09:18:31;6.40;;;2.29;;
74168;SDS011;62523;53.336;83.690;2023-07-20T09:23:34;4.32;;;3.52;;
74168;SDS011;62523;53.336;83.690;2023-07-20T09:28:43;6.53;;;2.47;;
74168;SDS011;62523;53.336;83.690;2023-07-20T09:33:55;8.02;;;2.92;;
74168;SDS011;62523;53.336;83.690;2023-07-20T09:38:58;8.25;;;4.45;;
74168;SDS011;62523;53.336;83.690;2023-07-20T09:44:00;3.50;;;2.33;;
74168;SDS011;62523;53.336;83.690;2023-07-20T09:49:02;5.82;;;2.60;;
74168;SDS011;62523;53.336;83.690;2023-07-20T09:54:09;8.80;;;2.75;;
74168;SDS011;62523;53.336;83.690;2023-07-20T09:59:12;3.88;;;2.65;;
74168;SDS011;62523;53.336;83.690;2023-07-20T10:04:14;2.53;;;2.20;;
74168;SDS011;62523;53.336;83.690;2023-07-20T10:09:17;6.40;;;2.63;;
74168;SDS011;62523;53.336;83.690;2023-07-20T10:14:20;2.88;;;1.85;;
74168;SDS011;62523;53.336;83.690;2023-07-20T10:19:40;5.30;;;2.55;;
74168;SDS011;62523;53.336;83.690;2023-07-20T10:24:49;7.75;;;2.45;;
74168;SDS011;62523;53.336;83.690;2023-07-20T10:29:55;3.97;;;2.72;;
74168;SDS011;62523;53.336;83.690;2023-07-20T10:34:58;4.88;;;2.47;;
74168;SDS011;62523;53.336;83.690;2023-07-20T10:40:20;4.13;;;2.45;;
74168;SDS011;62523;53.336;83.690;2023-07-20T10:51:09;15.55;;;3.17;;
74168;SDS011;62523;53.336;83.690;2023-07-20T10:56:21;15.63;;;2.15;;
74168;SDS011;62523;53.336;83.690;2023-07-20T11:01:27;5.25;;;3.42;;
74168;SDS011;62523;53.336;83.690;2023-07-20T11:06:31;7.80;;;2.55;;
74168;SDS011;62523;53.336;83.690;2023-07-20T11:11:34;5.38;;;2.33;;
74168;SDS011;62523;53.336;83.690;2023-07-20T11:16:41;3.95;;;2.45;;
74168;SDS011;62523;53.336;83.690;2023-07-20T11:21:49;3.33;;;2.15;;
74168;SDS011;62523;53.336;83.690;2023-07-20T11:26:53;4.22;;;2.17;;
74168;SDS011;62523;53.336;83.690;2023-07-20T11:31:55;8.57;;;2.40;;
74168;SDS011;62523;53.336;83.690;2023-07-20T11:36:58;4.22;;;2.42;;
74168;SDS011;62523;53.336;83.690;2023-07-20T11:41:59;2.90;;;2.58;;
74168;SDS011;62523;53.336;83.690;2023-07-20T11:47:02;5.18;;;2.67;;
74168;SDS011;62523;53.336;83.690;2023-07-20T11:52:05;8.75;;;7.28;;
74168;SDS011;62523;53.336;83.690;2023-07-20T11:57:15;4.77;;;4.00;;
74168;SDS011;62523;53.336;83.690;2023-07-20T12:02:20;5.18;;;2.60;;
74168;SDS011;62523;53.336;83.690;2023-07-20T12:07:22;6.78;;;2.08;;
74168;SDS011;62523;53.336;83.690;2023-07-20T12:12:25;3.15;;;2.45;;
74168;SDS011;62523;53.336;83.690;2023-07-20T12:17:26;3.97;;;2.57;;
74168;SDS011;62523;53.336;83.690;2023-07-20T12:22:28;3.95;;;3.10;;
74168;SDS011;62523;53.336;83.690;2023-07-20T12:27:30;3.87;;;3.10;;
74168;SDS011;62523;53.336;83.690;2023-07-20T12:32:31;8.25;;;2.60;;
74168;SDS011;62523;53.336;83.690;2023-07-20T12:37:34;3.93;;;2.33;;
74168;SDS011;62523;53.336;83.690;2023-07-20T12:42:35;2.85;;;2.35;;
74168;SDS011;62523;53.336;83.690;2023-07-20T12:47:37;4.57;;;2.55;;
74168;SDS011;62523;53.336;83.690;2023-07-20T12:52:39;26.75;;;6.05;;
74168;SDS011;62523;53.336;83.690;2023-07-20T12:57:41;3.58;;;3.17;;
74168;SDS011;62523;53.336;83.690;2023-07-20T13:02:43;8.88;;;3.85;;
74168;SDS011;62523;53.336;83.690;2023-07-20T13:07:45;12.95;;;2.75;;
74168;SDS011;62523;53.336;83.690;2023-07-20T13:12:47;7.28;;;3.20;;
74168;SDS011;62523;53.336;83.690;2023-07-20T13:17:48;4.15;;;3.20;;
74168;SDS011;62523;53.336;83.690;2023-07-20T13:22:50;7.63;;;3.50;;
74168;SDS011;62523;53.336;83.690;2023-07-20T13:27:51;5.63;;;3.93;;
74168;SDS011;62523;53.336;83.690;2023-07-20T13:32:53;4.55;;;3.00;;
74168;SDS011;62523;53.336;83.690;2023-07-20T13:37:54;12.27;;;5.03;;
74168;SDS011;62523;53.336;83.690;2023-07-20T13:42:56;5.50;;;4.22;;
74168;SDS011;62523;53.336;83.690;2023-07-20T13:47:57;15.47;;;3.77;;
74168;SDS011;62523;53.336;83.690;2023-07-20T13:52:59;11.98;;;4.35;;
74168;SDS011;62523;53.336;83.690;2023-07-20T13:58:03;17.88;;;4.15;;
74168;SDS011;62523;53.336;83.690;2023-07-20T14:03:05;23.13;;;5.13;;
74168;SDS011;62523;53.336;83.690;2023-07-20T14:08:06;8.00;;;5.13;;
74168;SDS011;62523;53.336;83.690;2023-07-20T14:13:08;9.10;;;3.22;;
74168;SDS011;62523;53.336;83.690;2023-07-20T14:18:09;7.77;;;2.73;;
74168;SDS011;62523;53.336;83.690;2023-07-20T14:23:11;12.02;;;3.78;;
74168;SDS011;62523;53.336;83.690;2023-07-20T14:28:12;5.40;;;3.50;;
74168;SDS011;62523;53.336;83.690;2023-07-20T14:33:14;4.45;;;3.42;;
74168;SDS011;62523;53.336;83.690;2023-07-20T14:38:15;9.02;;;4.13;;
74168;SDS011;62523;53.336;83.690;2023-07-20T14:43:17;7.22;;;3.05;;
74168;SDS011;62523;53.336;83.690;2023-07-20T14:48:18;4.15;;;3.15;;
74168;SDS011;62523;53.336;83.690;2023-07-20T14:53:20;5.65;;;3.92;;
74168;SDS011;62523;53.336;83.690;2023-07-20T14:58:31;7.81;;;3.92;;
74168;SDS011;62523;53.336;83.690;2023-07-20T15:03:33;5.27;;;3.45;;
74168;SDS011;62523;53.336;83.690;2023-07-20T15:08:34;6.04;;;2.86;;
74168;SDS011;62523;53.336;83.690;2023-07-20T15:13:36;5.20;;;3.13;;
74168;SDS011;62523;53.336;83.690;2023-07-20T15:18:37;5.40;;;3.20;;
74168;SDS011;62523;53.336;83.690;2023-07-20T15:23:39;8.35;;;3.85;;
74168;SDS011;62523;53.336;83.690;2023-07-20T15:28:41;10.88;;;4.22;;
74168;SDS011;62523;53.336;83.690;2023-07-20T15:33:43;47.60;;;30.13;;
74168;SDS011;62523;53.336;83.690;2023-07-20T15:38:44;17.27;;;12.43;;
74168;SDS011;62523;53.336;83.690;2023-07-20T15:43:46;5.38;;;2.72;;
74168;SDS011;62523;53.336;83.690;2023-07-20T15:48:49;3.17;;;2.87;;
74168;SDS011;62523;53.336;83.690;2023-07-20T15:53:51;2.97;;;2.57;;
74168;SDS011;62523;53.336;83.690;2023-07-20T15:58:52;4.07;;;2.72;;
74168;SDS011;62523;53.336;83.690;2023-07-20T16:03:54;3.38;;;2.75;;
74168;SDS011;62523;53.336;83.690;2023-07-20T16:08:56;3.05;;;2.45;;
74168;SDS011;62523;53.336;83.690;2023-07-20T16:13:58;16.50;;;10.65;;
74168;SDS011;62523;53.336;83.690;2023-07-20T16:19:01;6.18;;;2.45;;
74168;SDS011;62523;53.336;83.690;2023-07-20T16:24:02;4.40;;;2.30;;
74168;SDS011;62523;53.336;83.690;2023-07-20T16:29:04;36.00;;;17.17;;
74168;SDS011;62523;53.336;83.690;2023-07-20T16:34:06;3.03;;;1.70;;
74168;SDS011;62523;53.336;83.690;2023-07-20T16:39:08;2.10;;;1.70;;
74168;SDS011;62523;53.336;83.690;2023-07-20T16:44:10;3.20;;;2.00;;
74168;SDS011;62523;53.336;83.690;2023-07-20T16:49:12;4.00;;;1.33;;
74168;SDS011;62523;53.336;83.690;2023-07-20T16:54:13;15.88;;;1.05;;
74168;SDS011;62523;53.336;83.690;2023-07-20T16:59:15;1.75;;;1.65;;
74168;SDS011;62523;53.336;83.690;2023-07-20T17:04:18;6.50;;;5.00;;
74168;SDS011;62523;53.336;83.690;2023-07-20T17:09:20;3.25;;;2.70;;
74168;SDS011;62523;53.336;83.690;2023-07-20T17:14:22;3.88;;;2.53;;
74168;SDS011;62523;53.336;83.690;2023-07-20T17:19:23;2.47;;;1.08;;
74168;SDS011;62523;53.336;83.690;2023-07-20T17:24:25;2.70;;;2.38;;
74168;SDS011;62523;53.336;83.690;2023-07-20T17:29:27;1.38;;;1.10;;
74168;SDS011;62523;53.336;83.690;2023-07-20T17:34:29;2.67;;;2.08;;
74168;SDS011;62523;53.336;83.690;2023-07-20T17:39:32;6.20;;;2.40;;
74168;SDS011;62523;53.336;83.690;2023-07-20T17:44:34;6.55;;;1.90;;
74168;SDS011;62523;53.336;83.690;2023-07-20T17:49:36;2.03;;;1.85;;
74168;SDS011;62523;53.336;83.690;2023-07-20T17:54:38;4.60;;;3.00;;
74168;SDS011;62523;53.336;83.690;2023-07-20T17:59:40;3.85;;;2.53;;
74168;SDS011;62523;53.336;83.690;2023-07-20T18:04:43;11.73;;;4.40;;
74168;SDS011;62523;53.336;83.690;2023-07-20T18:09:44;16.85;;;7.78;;
74168;SDS011;62523;53.336;83.690;2023-07-20T18:14:46;6.10;;;5.05;;
74168;SDS011;62523;53.336;83.690;2023-07-20T18:19:48;18.17;;;13.48;;
74168;SDS011;62523;53.336;83.690;2023-07-20T18:24:50;20.02;;;7.40;;
74168;SDS011;62523;53.336;83.690;2023-07-20T18:29:52;30.65;;;20.77;;
74168;SDS011;62523;53.336;83.690;2023-07-20T18:34:54;3.83;;;3.28;;
74168;SDS011;62523;53.336;83.690;2023-07-20T18:39:56;10.75;;;4.22;;
74168;SDS011;62523;53.336;83.690;2023-07-20T18:44:58;15.75;;;11.70;;
74168;SDS011;62523;53.336;83.690;2023-07-20T18:50:00;12.93;;;7.75;;
74168;SDS011;62523;53.336;83.690;2023-07-20T18:55:02;6.57;;;4.03;;
74168;SDS011;62523;53.336;83.690;2023-07-20T19:00:05;5.03;;;2.92;;
74168;SDS011;62523;53.336;83.690;2023-07-20T19:05:08;2.47;;;2.03;;
74168;SDS011;62523;53.336;83.690;2023-07-20T19:10:10;1.60;;;1.40;;
74168;SDS011;62523;53.336;83.690;2023-07-20T19:15:13;5.38;;;2.65;;
74168;SDS011;62523;53.336;83.690;2023-07-20T19:20:15;2.17;;;1.48;;
74168;SDS011;62523;53.336;83.690;2023-07-20T19:25:17;3.50;;;1.98;;
74168;SDS011;62523;53.336;83.690;2023-07-20T19:30:19;4.05;;;2.08;;
74168;SDS011;62523;53.336;83.690;2023-07-20T19:35:21;2.80;;;1.60;;
74168;SDS011;62523;53.336;83.690;2023-07-20T19:40:23;1.95;;;1.48;;
74168;SDS011;62523;53.336;83.690;2023-07-20T19:45:24;1.27;;;1.17;;
74168;SDS011;62523;53.336;83.690;2023-07-20T19:50:25;4.07;;;1.75;;
74168;SDS011;62523;53.336;83.690;2023-07-20T19:55:28;2.45;;;2.22;;
74168;SDS011;62523;53.336;83.690;2023-07-20T20:00:29;3.85;;;1.63;;
74168;SDS011;62523;53.336;83.690;2023-07-20T20:05:31;3.50;;;2.15;;
74168;SDS011;62523;53.336;83.690;2023-07-20T20:10:36;5.63;;;1.75;;
74168;SDS011;62523;53.336;83.690;2023-07-20T20:15:41;8.43;;;2.15;;
74168;SDS011;62523;53.336;83.690;2023-07-20T20:20:44;2.25;;;1.75;;
74168;SDS011;62523;53.336;83.690;2023-07-20T20:25:47;4.22;;;2.58;;
74168;SDS011;62523;53.336;83.690;2023-07-20T20:30:49;4.90;;;1.80;;
74168;SDS011;62523;53.336;83.690;2023-07-20T20:35:52;6.05;;;2.00;;
74168;SDS011;62523;53.336;83.690;2023-07-20T20:40:54;2.53;;;1.75;;
74168;SDS011;62523;53.336;83.690;2023-07-20T20:46:02;2.65;;;1.85;;
74168;SDS011;62523;53.336;83.690;2023-07-20T20:51:11;4.55;;;1.63;;
74168;SDS011;62523;53.336;83.690;2023-07-20T20:56:13;2.15;;;1.65;;
74168;SDS011;62523;53.336;83.690;2023-07-20T21:01:15;2.53;;;2.03;;
74168;SDS011;62523;53.336;83.690;2023-07-20T21:06:16;4.45;;;1.55;;
74168;SDS011;62523;53.336;83.690;2023-07-20T21:11:18;7.28;;;2.72;;
74168;SDS011;62523;53.336;83.690;2023-07-20T21:16:20;2.35;;;2.03;;
74168;SDS011;62523;53.336;83.690;2023-07-20T21:21:22;3.85;;;1.95;;
74168;SDS011;62523;53.336;83.690;2023-07-20T21:26:24;2.15;;;1.50;;
74168;SDS011;62523;53.336;83.690;2023-07-20T21:31:26;7.30;;;1.73;;
74168;SDS011;62523;53.336;83.690;2023-07-20T21:36:28;1.90;;;1.70;;
74168;SDS011;62523;53.336;83.690;2023-07-20T21:41:30;7.72;;;2.55;;
74168;SDS011;62523;53.336;83.690;2023-07-20T21:46:31;2.13;;;1.67;;
74168;SDS011;62523;53.336;83.690;2023-07-20T21:51:34;3.30;;;1.98;;
74168;SDS011;62523;53.336;83.690;2023-07-20T21:56:36;4.70;;;1.95;;
74168;SDS011;62523;53.336;83.690;2023-07-20T22:01:38;6.25;;;2.28;;
74168;SDS011;62523;53.336;83.690;2023-07-20T22:06:39;3.75;;;2.00;;
74168;SDS011;62523;53.336;83.690;2023-07-20T22:11:47;6.82;;;2.45;;
74168;SDS011;62523;53.336;83.690;2023-07-20T22:16:48;3.45;;;1.73;;
74168;SDS011;62523;53.336;83.690;2023-07-20T22:21:50;2.97;;;2.10;;
74168;SDS011;62523;53.336;83.690;2023-07-20T22:26:53;12.18;;;3.67;;
74168;SDS011;62523;53.336;83.690;2023-07-20T22:31:55;7.07;;;2.45;;
74168;SDS011;62523;53.336;83.690;2023-07-20T22:36:57;5.50;;;2.45;;
74168;SDS011;62523;53.336;83.690;2023-07-20T22:42:00;5.50;;;2.15;;
74168;SDS011;62523;53.336;83.690;2023-07-20T22:47:03;9.18;;;2.05;;
74168;SDS011;62523;53.336;83.690;2023-07-20T22:52:07;3.35;;;2.15;;
74168;SDS011;62523;53.336;83.690;2023-07-20T22:57:09;6.87;;;2.17;;
74168;SDS011;62523;53.336;83.690;2023-07-20T23:02:10;6.15;;;3.42;;
74168;SDS011;62523;53.336;83.690;2023-07-20T23:07:12;5.95;;;3.22;;
74168;SDS011;62523;53.336;83.690;2023-07-20T23:12:13;3.00;;;2.17;;
74168;SDS011;62523;53.336;83.690;2023-07-20T23:17:15;3.42;;;2.38;;
74168;SDS011;62523;53.336;83.690;2023-07-20T23:22:17;4.00;;;2.03;;
74168;SDS011;62523;53.336;83.690;2023-07-20T23:27:21;1.73;;;1.55;;
74168;SDS011;62523;53.336;83.690;2023-07-20T23:32:23;6.27;;;1.70;;
74168;SDS011;62523;53.336;83.690;2023-07-20T23:37:25;5.65;;;3.28;;
74168;SDS011;62523;53.336;83.690;2023-07-20T23:42:27;12.97;;;3.97;;
74168;SDS011;62523;53.336;83.690;2023-07-20T23:47:29;12.43;;;2.85;;
74168;SDS011;62523;53.336;83.690;2023-07-20T23:52:31;2.60;;;2.08;;
74168;SDS011;62523;53.336;83.690;2023-07-20T23:57:36;10.00;;;2.47;;
